createdAt,value
2022-12-24T00:01:07.457Z,77.30
2022-12-24T00:03:35.332Z,83.68
2022-12-24T00:06:09.919Z,85.00
2022-12-24T00:08:42.477Z,84.68
2022-12-24T00:11:09.715Z,72.18
2022-12-24T00:13:37.063Z,76.10
2022-12-24T00:16:04.451Z,74.53
2022-12-24T00:18:31.778Z,78.03
2022-12-24T00:20:59.047Z,74.18
2022-12-24T00:23:26.212Z,63.15
2022-12-24T00:25:53.650Z,65.63
2022-12-24T00:28:21.611Z,65.10
2022-12-24T00:30:49.051Z,59.35
2022-12-24T00:33:22.359Z,60.55
2022-12-24T00:35:52.989Z,59.80
2022-12-24T00:38:20.396Z,50.70
2022-12-24T00:40:47.553Z,55.85
2022-12-24T00:43:14.768Z,53.33
2022-12-24T00:45:42.253Z,61.75
2022-12-24T00:48:09.442Z,53.10
2022-12-24T00:50:36.646Z,50.15
2022-12-24T00:53:05.025Z,48.55
2022-12-24T00:55:32.226Z,48.95
2022-12-24T00:57:59.386Z,46.13
2022-12-24T01:00:26.651Z,46.63
2022-12-24T01:02:54.418Z,35.88
2022-12-24T01:05:23.096Z,38.80
2022-12-24T01:07:53.994Z,41.13
2022-12-24T01:10:21.262Z,37.47
2022-12-24T01:12:48.485Z,37.42
2022-12-24T01:15:16.385Z,35.35
2022-12-24T01:17:43.638Z,37.72
2022-12-24T01:20:15.682Z,39.22
2022-12-24T01:22:42.956Z,34.30
2022-12-24T01:25:10.726Z,33.50
2022-12-24T01:27:38.078Z,29.13
2022-12-24T01:30:07.068Z,32.63
2022-12-24T01:32:34.539Z,30.45
2022-12-24T01:35:01.700Z,30.85
2022-12-24T01:37:28.880Z,29.98
2022-12-24T01:40:16.010Z,30.25
2022-12-24T01:43:04.362Z,36.30
2022-12-24T01:45:42.159Z,31.80
2022-12-24T01:48:44.305Z,38.40
2022-12-24T01:51:35.663Z,29.85
2022-12-24T01:54:08.017Z,30.65
2022-12-24T01:56:37.056Z,34.05
2022-12-24T01:59:08.599Z,33.95
2022-12-24T02:01:36.108Z,32.35
2022-12-24T02:04:13.906Z,38.10
2022-12-24T02:06:41.119Z,35.65
2022-12-24T02:09:08.392Z,35.33
2022-12-24T02:11:38.173Z,33.33
2022-12-24T02:14:05.447Z,33.75
2022-12-24T02:16:59.629Z,36.13
2022-12-24T02:19:58.116Z,39.67
2022-12-24T02:22:41.732Z,35.90
2022-12-24T02:25:25.166Z,39.00
2022-12-24T02:28:14.261Z,31.30
2022-12-24T02:30:52.135Z,35.85
2022-12-24T02:33:45.737Z,38.00
2022-12-24T02:36:20.462Z,37.50
2022-12-24T02:39:00.995Z,39.28
2022-12-24T02:41:59.949Z,36.55
2022-12-24T02:44:29.105Z,37.25
2022-12-24T02:46:57.922Z,33.50
2022-12-24T02:49:25.591Z,32.47
2022-12-24T02:51:52.931Z,39.67
2022-12-24T02:54:20.163Z,40.38
2022-12-24T02:56:54.204Z,40.20
2022-12-24T02:59:27.489Z,36.03
2022-12-24T03:02:33.388Z,40.33
2022-12-24T03:05:20.714Z,36.47
2022-12-24T03:08:17.223Z,33.50
2022-12-24T03:10:58.166Z,38.50
2022-12-24T03:13:26.569Z,43.58
2022-12-24T03:15:53.895Z,42.70
2022-12-24T03:18:24.835Z,42.28
2022-12-24T03:21:01.530Z,38.15
2022-12-24T03:23:28.798Z,40.58
2022-12-24T03:25:56.005Z,41.83
2022-12-24T03:28:26.407Z,40.72
2022-12-24T03:30:53.801Z,40.95
2022-12-24T03:33:21.260Z,43.08
2022-12-24T03:35:50.117Z,41.03
2022-12-24T03:38:17.315Z,37.80
2022-12-24T03:40:44.503Z,43.50
2022-12-24T03:43:11.663Z,42.17
2022-12-24T03:45:39.221Z,38.97
2022-12-24T03:48:06.497Z,42.78
2022-12-24T03:50:33.949Z,45.63
2022-12-24T03:53:01.101Z,42.85
2022-12-24T03:55:28.283Z,44.80
2022-12-24T03:57:55.428Z,40.67
2022-12-24T04:00:22.641Z,47.10
2022-12-24T04:02:49.969Z,47.47
2022-12-24T04:05:19.404Z,48.88
2022-12-24T04:10:14.809Z,47.03
2022-12-24T04:12:41.999Z,54.38
2022-12-24T04:15:10.154Z,54.47
2022-12-24T04:17:37.612Z,43.80
2022-12-24T04:20:05.354Z,47.95
2022-12-24T04:22:32.616Z,47.45
2022-12-24T04:24:59.946Z,48.28
2022-12-24T04:27:30.552Z,45.38
2022-12-24T04:29:58.881Z,47.65
2022-12-24T04:32:29.447Z,47.28
2022-12-24T04:34:56.744Z,46.25
2022-12-24T04:37:23.900Z,48.05
2022-12-24T04:39:51.097Z,50.78
2022-12-24T04:42:18.266Z,45.90
2022-12-24T04:44:45.454Z,47.95
2022-12-24T04:47:12.725Z,51.30
2022-12-24T04:49:39.919Z,51.70
2022-12-24T04:52:07.168Z,55.10
2022-12-24T04:54:34.410Z,55.45
2022-12-24T04:57:01.629Z,57.78
2022-12-24T04:59:29.001Z,62.47
2022-12-24T05:01:56.403Z,58.13
2022-12-24T05:04:23.702Z,54.65
2022-12-24T05:06:50.865Z,55.47
2022-12-24T05:09:18.107Z,58.17
2022-12-24T05:11:45.256Z,56.58
2022-12-24T05:14:12.594Z,59.13
2022-12-24T05:16:39.826Z,57.08
2022-12-24T05:19:07.156Z,54.25
2022-12-24T05:21:34.365Z,55.42
2022-12-24T05:24:20.077Z,55.40
2022-12-24T05:26:50.087Z,59.25
2022-12-24T05:29:17.243Z,52.47
2022-12-24T05:31:45.203Z,62.20
2022-12-24T05:34:13.795Z,64.05
2022-12-24T05:36:41.159Z,57.77
2022-12-24T05:39:15.422Z,60.17
2022-12-24T05:41:43.412Z,62.42
2022-12-24T05:44:10.706Z,67.90
2022-12-24T05:46:37.945Z,64.45
2022-12-24T05:49:05.222Z,64.47
2022-12-24T05:51:32.409Z,74.18
2022-12-24T05:53:59.628Z,62.35
2022-12-24T05:56:26.931Z,68.25
2022-12-24T05:58:54.850Z,65.93
2022-12-24T06:01:22.937Z,70.85
2022-12-24T06:03:50.746Z,68.05
2022-12-24T06:06:23.539Z,68.32
2022-12-24T06:08:51.639Z,61.80
2022-12-24T06:11:24.782Z,67.28
2022-12-24T06:13:53.156Z,68.97
2022-12-24T06:16:21.137Z,70.80
2022-12-24T06:18:48.403Z,70.85
2022-12-24T06:21:16.146Z,66.97
2022-12-24T06:23:44.559Z,71.75
2022-12-24T06:26:17.493Z,81.23
2022-12-24T06:28:45.177Z,76.35
2022-12-24T06:31:17.934Z,81.50
2022-12-24T06:33:45.450Z,83.30
2022-12-24T06:36:21.416Z,76.72
2022-12-24T06:38:49.088Z,80.88
2022-12-24T06:41:17.398Z,83.55
2022-12-24T06:43:46.101Z,88.55
2022-12-24T06:46:13.760Z,80.97
2022-12-24T06:48:41.280Z,69.40
2022-12-24T06:51:08.902Z,74.22
2022-12-24T06:53:36.602Z,77.80
2022-12-24T06:56:12.529Z,81.15
2022-12-24T06:58:41.193Z,74.97
2022-12-24T07:01:11.071Z,72.55
2022-12-24T07:03:38.709Z,68.68
2022-12-24T07:06:06.364Z,74.03
2022-12-24T07:08:36.285Z,74.28
2022-12-24T07:11:03.713Z,75.25
2022-12-24T07:13:33.077Z,70.03
2022-12-24T07:16:05.118Z,75.35
2022-12-24T07:18:32.917Z,73.28
2022-12-24T07:21:01.112Z,73.80
2022-12-24T07:23:28.927Z,71.35
2022-12-24T07:25:56.174Z,77.95
2022-12-24T07:28:27.765Z,66.88
2022-12-24T07:30:56.483Z,76.20
2022-12-24T07:33:24.680Z,76.38
2022-12-24T07:36:02.619Z,79.22
2022-12-24T07:38:30.181Z,71.07
2022-12-24T07:40:58.348Z,73.53
2022-12-24T07:43:26.362Z,74.82
2022-12-24T07:45:59.388Z,75.38
2022-12-24T07:48:28.020Z,69.68
2022-12-24T07:50:57.835Z,71.35
2022-12-24T07:53:26.501Z,74.85
2022-12-24T07:55:54.040Z,77.45
2022-12-24T07:58:21.793Z,75.20
2022-12-24T08:00:49.156Z,73.35
2022-12-24T08:03:21.722Z,71.55
2022-12-24T08:05:49.667Z,76.07
2022-12-24T08:08:16.853Z,76.68
2022-12-24T08:10:45.348Z,78.60
2022-12-24T08:13:13.079Z,76.70
2022-12-24T08:15:40.339Z,69.47
2022-12-24T08:18:12.618Z,64.50
2022-12-24T08:20:40.903Z,64.65
2022-12-24T08:23:08.985Z,72.82
2022-12-24T08:25:36.381Z,68.22
2022-12-24T08:28:04.205Z,69.53
2022-12-24T08:30:31.614Z,71.90
2022-12-24T08:32:58.846Z,68.43
2022-12-24T08:35:26.048Z,67.15
2022-12-24T08:37:53.208Z,67.97
2022-12-24T08:40:20.576Z,68.05
2022-12-24T08:42:47.790Z,56.28
2022-12-24T08:45:15.052Z,55.88
2022-12-24T08:47:43.501Z,64.38
2022-12-24T08:50:11.595Z,55.67
2022-12-24T08:52:38.782Z,52.08
2022-12-24T08:55:06.522Z,50.72
2022-12-24T08:57:37.202Z,52.30
2022-12-24T09:00:06.180Z,53.17
2022-12-24T09:02:33.511Z,56.25
2022-12-24T09:05:09.147Z,46.92
2022-12-24T09:07:38.159Z,42.42
2022-12-24T09:10:06.383Z,46.20
2022-12-24T09:12:34.022Z,39.30
2022-12-24T09:15:04.220Z,36.95
2022-12-24T09:17:31.810Z,31.95
2022-12-24T09:19:58.973Z,33.78
2022-12-24T09:22:28.462Z,33.58
2022-12-24T09:24:56.000Z,31.50
2022-12-24T09:27:23.480Z,32.95
2022-12-24T09:29:53.045Z,28.85
2022-12-24T09:32:20.300Z,36.00
2022-12-24T09:34:47.549Z,31.17
2022-12-24T09:37:16.369Z,31.50
2022-12-24T09:39:43.980Z,31.95
2022-12-24T09:42:27.124Z,37.03
2022-12-24T09:45:08.330Z,30.23
2022-12-24T09:47:55.809Z,27.85
2022-12-24T09:50:32.569Z,33.22
2022-12-24T09:53:03.228Z,31.75
2022-12-24T09:55:41.067Z,38.13
2022-12-24T09:58:10.845Z,31.42
2022-12-24T10:00:38.579Z,28.27
2022-12-24T10:03:18.880Z,30.88
2022-12-24T10:05:52.725Z,32.58
2022-12-24T10:08:47.781Z,27.05
2022-12-24T10:11:28.013Z,28.00
2022-12-24T10:14:11.578Z,25.08
2022-12-24T10:16:49.682Z,24.27
2022-12-24T10:19:38.858Z,23.02
2022-12-24T10:27:16.001Z,19.75
2022-12-24T10:29:48.068Z,18.52
2022-12-24T10:32:31.696Z,16.20
2022-12-24T10:35:02.243Z,19.00
2022-12-24T10:37:30.809Z,18.90
2022-12-24T10:39:59.449Z,17.58
2022-12-24T10:42:36.926Z,15.65
2022-12-24T10:45:06.864Z,16.35
2022-12-24T10:47:38.228Z,18.27
2022-12-24T10:50:23.989Z,15.52
2022-12-24T10:52:52.091Z,17.20
2022-12-24T10:55:28.228Z,16.02
2022-12-24T10:58:04.548Z,13.48
2022-12-24T11:00:36.185Z,18.42
2022-12-24T11:03:12.992Z,18.60
2022-12-24T11:05:45.779Z,19.02
2022-12-24T11:08:12.969Z,23.20
2022-12-24T11:10:45.553Z,21.73
2022-12-24T11:13:38.549Z,19.08
2022-12-24T11:16:10.358Z,16.70
2022-12-24T11:18:50.444Z,21.73
2022-12-24T11:21:36.438Z,19.23
2022-12-24T11:24:14.160Z,16.05
2022-12-24T11:26:42.956Z,26.13
2022-12-24T11:29:21.586Z,26.40
2022-12-24T11:31:49.513Z,21.65
2022-12-24T11:34:32.928Z,24.65
2022-12-24T11:37:21.602Z,21.33
2022-12-24T11:39:58.402Z,27.63
2022-12-24T11:42:40.814Z,30.40
2022-12-24T11:45:26.126Z,21.55
2022-12-24T11:47:54.161Z,18.35
2022-12-24T11:50:35.657Z,24.67
2022-12-24T11:53:17.736Z,24.52
2022-12-24T11:55:55.163Z,23.27
2022-12-24T11:58:52.722Z,30.77
2022-12-24T12:01:31.068Z,27.52
2022-12-24T12:04:19.174Z,32.73
2022-12-24T12:06:52.900Z,26.25
2022-12-24T12:09:31.395Z,32.45
2022-12-24T12:12:07.080Z,30.45
2022-12-24T12:14:48.701Z,34.72
2022-12-24T12:17:41.317Z,42.50
2022-12-24T12:20:34.163Z,39.03
2022-12-24T12:23:41.374Z,43.83
2022-12-24T12:26:19.030Z,39.35
2022-12-24T12:29:24.382Z,31.70
2022-12-24T12:31:59.506Z,38.08
2022-12-24T12:34:34.232Z,54.22
2022-12-24T12:37:24.943Z,41.58
2022-12-24T12:39:52.196Z,26.48
2022-12-24T12:42:34.457Z,43.20
2022-12-24T12:45:49.780Z,49.92
2022-12-24T12:48:35.322Z,47.15
2022-12-24T12:51:26.102Z,46.67
2022-12-24T12:57:42.486Z,44.15
2022-12-24T13:00:12.723Z,32.35
2022-12-24T13:03:07.586Z,42.67
2022-12-24T13:06:02.124Z,32.85
2022-12-24T13:08:41.487Z,41.72
2022-12-24T13:11:40.380Z,38.58
2022-12-24T13:14:46.330Z,31.73
2022-12-24T13:17:54.575Z,40.22
2022-12-24T13:24:16.514Z,29.45
2022-12-24T13:26:56.675Z,35.30
2022-12-24T13:30:15.761Z,32.78
2022-12-24T13:35:19.845Z,38.45
2022-12-24T13:38:17.426Z,34.60
2022-12-24T13:40:44.985Z,36.05
2022-12-24T13:44:02.459Z,37.05
2022-12-24T13:46:50.083Z,42.83
2022-12-24T13:49:21.220Z,40.58
2022-12-24T13:51:52.559Z,47.33
2022-12-24T14:01:57.459Z,31.50
2022-12-24T14:08:29.169Z,41.95
2022-12-24T14:11:22.875Z,31.98
2022-12-24T14:13:55.436Z,37.40
2022-12-24T14:16:25.128Z,35.20
2022-12-24T14:22:45.646Z,40.60
2022-12-24T14:25:21.506Z,36.17
2022-12-24T14:27:54.957Z,47.90
2022-12-24T14:30:27.585Z,39.63
2022-12-24T14:35:40.457Z,38.45
2022-12-24T14:38:14.116Z,46.28
2022-12-24T14:41:12.083Z,29.15
2022-12-24T14:44:20.606Z,38.08
2022-12-24T14:46:58.868Z,39.97
2022-12-24T14:49:59.266Z,39.60
2022-12-24T14:53:03.372Z,31.70
2022-12-24T14:55:36.031Z,36.60
2022-12-24T14:58:26.657Z,38.78
2022-12-24T15:01:02.341Z,31.30
2022-12-24T15:03:39.888Z,37.80
2022-12-24T15:06:17.643Z,37.53
2022-12-24T15:08:47.625Z,33.60
2022-12-24T15:11:21.236Z,40.75
2022-12-24T15:13:56.228Z,35.58
2022-12-24T15:20:07.461Z,43.28
2022-12-24T15:27:53.296Z,38.47
2022-12-24T15:30:30.593Z,47.97
2022-12-24T15:42:18.954Z,59.13
2022-12-24T15:45:08.307Z,46.20
2022-12-24T15:47:48.489Z,53.88
2022-12-24T15:54:03.119Z,56.67
2022-12-24T15:56:33.295Z,45.80
2022-12-24T16:10:28.337Z,44.25
2022-12-24T16:16:46.965Z,45.38
2022-12-24T16:19:23.263Z,41.97
2022-12-24T16:32:34.035Z,49.70
2022-12-24T16:35:03.245Z,50.15
2022-12-24T16:37:30.600Z,44.90
2022-12-24T16:39:59.329Z,63.70
2022-12-24T16:42:45.755Z,51.83
2022-12-24T16:45:13.136Z,44.28
2022-12-24T16:47:43.377Z,38.78
2022-12-24T16:50:16.813Z,41.20
2022-12-24T16:52:44.602Z,45.30
2022-12-24T16:55:17.920Z,40.13
2022-12-24T16:57:51.096Z,44.95
2022-12-24T17:00:21.574Z,46.70
2022-12-24T17:02:49.757Z,36.95
2022-12-24T17:05:17.490Z,38.23
2022-12-24T17:07:50.354Z,43.72
2022-12-24T17:10:17.787Z,33.95
2022-12-24T17:12:45.053Z,30.98
2022-12-24T17:15:12.703Z,28.85
2022-12-24T17:17:39.988Z,34.15
2022-12-24T17:20:09.517Z,25.50
2022-12-24T17:22:39.488Z,32.03
2022-12-24T17:25:07.672Z,37.90
2022-12-24T17:27:34.904Z,32.83
2022-12-24T17:30:02.484Z,26.48
2022-12-24T17:32:29.772Z,28.00
2022-12-24T17:41:56.214Z,30.97
2022-12-24T17:44:23.876Z,33.50
2022-12-24T17:46:51.149Z,28.10
2022-12-24T17:49:18.423Z,27.30
2022-12-24T17:51:46.687Z,23.48
2022-12-24T17:54:14.315Z,23.85
2022-12-24T17:56:41.542Z,31.92
2022-12-24T17:59:08.890Z,29.65
2022-12-24T18:01:36.240Z,28.63
2022-12-24T18:04:04.036Z,24.08
2022-12-24T18:06:31.524Z,21.00
2022-12-24T18:08:58.886Z,25.92
2022-12-24T18:11:29.180Z,29.52
2022-12-24T18:13:57.447Z,19.20
2022-12-24T18:16:25.604Z,25.75
2022-12-24T18:18:53.047Z,25.58
2022-12-24T18:21:23.483Z,27.70
2022-12-24T18:23:52.308Z,18.58
2022-12-24T18:26:20.280Z,21.83
2022-12-24T18:28:47.773Z,23.55
2022-12-24T18:31:18.108Z,27.10
2022-12-24T18:33:47.524Z,15.13
2022-12-24T18:36:15.119Z,24.10
2022-12-24T18:38:42.318Z,21.95
2022-12-24T18:41:15.838Z,17.60
2022-12-24T18:43:43.133Z,21.25
2022-12-24T18:46:15.900Z,18.35
2022-12-24T18:48:43.318Z,19.02
2022-12-24T18:51:10.680Z,20.83
2022-12-24T18:53:38.389Z,15.40
2022-12-24T18:56:16.071Z,24.80
2022-12-24T18:58:43.829Z,21.20
2022-12-24T19:01:16.671Z,21.10
2022-12-24T19:03:44.041Z,17.88
2022-12-24T19:06:11.338Z,14.75
2022-12-24T19:11:26.581Z,23.73
2022-12-24T19:13:53.914Z,20.63
2022-12-24T19:16:21.466Z,20.60
2022-12-24T19:18:49.004Z,18.02
2022-12-24T19:21:17.673Z,15.70
2022-12-24T19:23:45.355Z,21.15
2022-12-24T19:26:14.293Z,17.30
2022-12-24T19:28:41.497Z,18.75
2022-12-24T19:31:13.316Z,15.02
2022-12-24T19:33:43.676Z,12.70
2022-12-24T19:36:15.076Z,15.63
2022-12-24T19:38:42.801Z,21.15
2022-12-24T19:41:15.750Z,17.63
2022-12-24T19:43:48.028Z,18.05
2022-12-24T19:46:19.860Z,15.55
2022-12-24T19:48:52.403Z,10.05
2022-12-24T19:51:21.347Z,13.55
2022-12-24T19:53:49.215Z,12.02
2022-12-24T19:56:18.113Z,23.98
2022-12-24T19:58:45.785Z,15.98
2022-12-24T20:01:16.203Z,11.32
2022-12-24T20:03:44.586Z,17.13
2022-12-24T20:06:12.748Z,12.77
2022-12-24T20:08:40.321Z,11.10
2022-12-24T20:11:15.433Z,9.07
2022-12-24T20:13:43.022Z,13.63
2022-12-24T20:16:15.771Z,15.20
2022-12-24T20:18:43.027Z,22.20
2022-12-24T20:21:11.996Z,22.70
2022-12-24T20:23:40.352Z,12.45
2022-12-24T20:26:10.401Z,11.55
2022-12-24T20:28:37.731Z,13.98
2022-12-24T20:31:17.224Z,13.38
2022-12-24T20:33:45.077Z,14.00
2022-12-24T20:36:13.982Z,11.98
2022-12-24T20:38:41.356Z,12.90
2022-12-24T20:41:12.292Z,13.13
2022-12-24T20:43:47.396Z,14.35
2022-12-24T20:46:16.553Z,14.88
2022-12-24T20:48:45.166Z,18.25
2022-12-24T20:51:23.687Z,11.73
2022-12-24T20:53:55.194Z,17.98
2022-12-24T20:56:37.804Z,18.40
2022-12-24T20:59:05.323Z,24.02
2022-12-24T21:01:34.311Z,24.00
2022-12-24T21:06:32.863Z,13.73
2022-12-24T21:09:00.762Z,19.92
2022-12-24T21:11:46.710Z,22.80
2022-12-24T21:14:16.573Z,28.55
2022-12-24T21:16:44.775Z,16.00
2022-12-24T21:19:18.658Z,27.25
2022-12-24T21:21:47.201Z,22.95
2022-12-24T21:24:14.927Z,21.35
2022-12-24T21:26:43.586Z,25.05
2022-12-24T21:29:11.169Z,28.40
2022-12-24T21:31:38.596Z,26.33
2022-12-24T21:34:06.088Z,22.52
2022-12-24T21:36:33.458Z,22.98
2022-12-24T21:39:00.628Z,24.52
2022-12-24T21:41:28.075Z,28.80
2022-12-24T21:43:55.491Z,26.90
2022-12-24T21:46:25.268Z,22.92
2022-12-24T21:49:13.384Z,27.77
2022-12-24T21:51:41.407Z,30.92
2022-12-24T21:54:23.932Z,30.50
2022-12-24T21:57:11.137Z,24.55
2022-12-24T21:59:38.583Z,35.75
2022-12-24T22:02:05.920Z,34.38
2022-12-24T22:04:33.557Z,28.98
2022-12-24T22:07:19.405Z,21.13
2022-12-24T22:10:05.406Z,33.78
2022-12-24T22:12:33.623Z,27.20
2022-12-24T22:15:00.842Z,24.15
2022-12-24T22:17:30.849Z,23.60
2022-12-24T22:19:58.127Z,25.60
2022-12-24T22:22:26.884Z,27.63
2022-12-24T22:24:54.173Z,30.13
2022-12-24T22:27:21.584Z,32.60
2022-12-24T22:29:49.240Z,27.02
2022-12-24T22:32:16.507Z,25.25
2022-12-24T22:34:43.739Z,23.83
2022-12-24T22:37:11.102Z,29.90
2022-12-24T22:39:39.126Z,25.67
2022-12-24T22:42:06.557Z,35.00
2022-12-24T22:44:33.876Z,27.27
2022-12-24T22:47:01.180Z,33.25
2022-12-24T22:49:28.482Z,29.55
2022-12-24T22:51:58.007Z,22.45
2022-12-24T22:54:25.392Z,30.00
2022-12-24T22:56:52.659Z,21.38
2022-12-24T22:59:20.145Z,31.98
2022-12-24T23:01:48.398Z,25.98
2022-12-24T23:04:15.973Z,29.03
2022-12-24T23:06:44.562Z,29.00
2022-12-24T23:09:13.821Z,40.83
2022-12-24T23:11:41.605Z,28.42
2022-12-24T23:14:35.240Z,23.05
2022-12-24T23:17:02.781Z,36.67
2022-12-24T23:19:32.122Z,34.53
2022-12-24T23:22:47.586Z,28.15
2022-12-24T23:25:22.211Z,34.58
2022-12-24T23:28:11.102Z,30.58
2022-12-24T23:31:00.194Z,27.08
2022-12-24T23:33:28.290Z,41.33
2022-12-24T23:35:55.514Z,24.73
2022-12-24T23:38:24.827Z,30.20
2022-12-24T23:43:23.089Z,40.13
2022-12-24T23:45:51.126Z,25.65
2022-12-24T23:48:18.712Z,30.35
2022-12-24T23:50:46.599Z,30.90
2022-12-24T23:53:14.626Z,28.40
2022-12-24T23:55:42.589Z,31.13
2022-12-24T23:58:14.424Z,32.60
